createdAt,value
2022-12-27T00:00:34.997Z,2.3
2022-12-27T00:01:34.631Z,1.5
2022-12-27T00:02:37.067Z,2.3
2022-12-27T00:03:34.195Z,1.1
2022-12-27T00:04:34.137Z,1.8
2022-12-27T00:05:34.745Z,1.0
2022-12-27T00:06:34.545Z,1.8
2022-12-27T00:07:34.363Z,1.5
2022-12-27T00:08:34.180Z,1.7
2022-12-27T00:09:34.067Z,2.0
2022-12-27T00:10:34.890Z,2.0
2022-12-27T00:11:34.529Z,2.0
2022-12-27T00:12:34.640Z,2.3
2022-12-27T00:13:34.186Z,1.3
2022-12-27T00:14:34.082Z,1.5
2022-12-27T00:15:34.850Z,1.5
2022-12-27T00:16:34.495Z,1.6
2022-12-27T00:17:34.276Z,1.9
2022-12-27T00:18:34.184Z,1.4
2022-12-27T00:19:33.947Z,1.7
2022-12-27T00:20:34.672Z,1.0
2022-12-27T00:21:34.508Z,1.9
2022-12-27T00:22:34.250Z,1.2
2022-12-27T00:23:35.821Z,2.2
2022-12-27T00:24:33.927Z,1.4
2022-12-27T00:25:34.601Z,1.2
2022-12-27T00:26:34.806Z,0.8
2022-12-27T00:27:34.330Z,1.3
2022-12-27T00:28:34.456Z,1.2
2022-12-27T00:29:33.855Z,1.4
2022-12-27T00:30:34.604Z,1.7
2022-12-27T00:31:34.485Z,1.4
2022-12-27T00:32:34.355Z,1.9
2022-12-27T00:33:35.022Z,1.6
2022-12-27T00:34:33.895Z,1.6
2022-12-27T00:35:37.456Z,2.3
2022-12-27T00:36:34.348Z,1.9
2022-12-27T00:37:34.147Z,1.9
2022-12-27T00:38:34.409Z,1.6
2022-12-27T00:39:34.770Z,1.3
2022-12-27T00:40:37.894Z,1.8
2022-12-27T00:41:34.430Z,2.0
2022-12-27T00:42:34.181Z,1.6
2022-12-27T00:43:34.406Z,1.8
2022-12-27T00:44:34.715Z,1.6
2022-12-27T00:45:34.522Z,1.4
2022-12-27T00:46:34.410Z,1.2
2022-12-27T00:47:34.121Z,1.6
2022-12-27T00:48:33.932Z,1.9
2022-12-27T00:49:34.705Z,1.4
2022-12-27T00:50:34.475Z,1.9
2022-12-27T00:51:34.295Z,1.9
2022-12-27T00:52:34.128Z,1.9
2022-12-27T00:53:34.488Z,1.7
2022-12-27T00:54:34.686Z,1.0
2022-12-27T00:55:34.387Z,1.4
2022-12-27T00:56:34.298Z,1.5
2022-12-27T00:57:34.085Z,1.7
2022-12-27T00:58:40.494Z,1.9
2022-12-27T00:59:34.570Z,1.8
2022-12-27T01:00:34.657Z,1.9
2022-12-27T01:01:35.567Z,1.3
2022-12-27T01:02:34.017Z,1.7
2022-12-27T01:03:34.861Z,1.5
2022-12-27T01:04:34.463Z,1.6
2022-12-27T01:05:37.041Z,2.0
2022-12-27T01:06:34.362Z,1.9
2022-12-27T01:07:33.937Z,1.6
2022-12-27T01:08:34.710Z,1.4
2022-12-27T01:09:34.453Z,1.6
2022-12-27T01:10:34.483Z,1.7
2022-12-27T01:11:34.216Z,1.2
2022-12-27T01:12:34.475Z,1.3
2022-12-27T01:13:34.940Z,1.5
2022-12-27T01:14:34.542Z,1.2
2022-12-27T01:15:34.285Z,1.4
2022-12-27T01:16:34.143Z,1.3
2022-12-27T01:17:34.943Z,2.1
2022-12-27T01:18:34.564Z,1.6
2022-12-27T01:19:34.811Z,2.0
2022-12-27T01:20:36.199Z,1.6
2022-12-27T01:21:33.992Z,1.3
2022-12-27T01:22:34.633Z,1.6
2022-12-27T01:23:34.663Z,1.9
2022-12-27T01:24:34.369Z,1.8
2022-12-27T01:25:34.100Z,1.8
2022-12-27T01:26:33.931Z,2.6
2022-12-27T01:27:34.761Z,1.6
2022-12-27T01:28:34.698Z,1.4
2022-12-27T01:29:34.309Z,2.0
2022-12-27T01:30:34.076Z,1.5
2022-12-27T01:31:34.600Z,1.2
2022-12-27T01:32:34.581Z,2.2
2022-12-27T01:33:34.402Z,1.6
2022-12-27T01:34:34.432Z,1.4
2022-12-27T01:35:34.068Z,1.8
2022-12-27T01:36:34.768Z,1.5
2022-12-27T01:37:34.570Z,1.6
2022-12-27T01:38:34.406Z,1.4
2022-12-27T01:39:34.234Z,1.7
2022-12-27T01:40:35.042Z,1.4
2022-12-27T01:41:35.557Z,2.1
2022-12-27T01:42:34.526Z,2.0
2022-12-27T01:43:37.339Z,1.7
2022-12-27T01:44:41.906Z,1.5
2022-12-27T01:45:35.330Z,1.6
2022-12-27T01:46:34.621Z,1.5
2022-12-27T01:47:39.318Z,2.4
2022-12-27T01:48:34.300Z,1.7
2022-12-27T01:49:34.129Z,2.3
2022-12-27T01:50:41.507Z,1.6
2022-12-27T01:51:34.588Z,1.7
2022-12-27T01:52:37.503Z,0.9
2022-12-27T01:53:36.197Z,1.3
2022-12-27T01:54:34.321Z,1.9
2022-12-27T01:55:39.610Z,1.5
2022-12-27T01:56:34.624Z,1.8
2022-12-27T01:57:34.374Z,1.6
2022-12-27T01:58:39.070Z,1.9
2022-12-27T01:59:34.601Z,1.6
2022-12-27T02:00:34.785Z,1.6
2022-12-27T02:01:39.111Z,1.5
2022-12-27T02:02:34.593Z,1.6
2022-12-27T02:03:36.413Z,1.5
2022-12-27T02:04:33.926Z,1.1
2022-12-27T02:05:34.800Z,1.8
2022-12-27T02:06:35.393Z,2.4
2022-12-27T02:07:39.204Z,1.8
2022-12-27T02:08:47.930Z,1.9
2022-12-27T02:09:37.397Z,2.3
2022-12-27T02:10:34.750Z,1.5
2022-12-27T02:11:35.294Z,1.5
2022-12-27T02:12:34.219Z,2.0
2022-12-27T02:13:36.709Z,1.5
2022-12-27T02:14:42.405Z,1.6
2022-12-27T02:15:34.539Z,1.7
2022-12-27T02:16:34.472Z,1.7
2022-12-27T02:17:34.416Z,1.5
2022-12-27T02:18:34.015Z,1.8
2022-12-27T02:19:45.453Z,1.5
2022-12-27T02:20:39.356Z,1.7
2022-12-27T02:21:50.943Z,1.7
2022-12-27T02:22:39.058Z,2.1
2022-12-27T02:23:40.017Z,1.3
2022-12-27T02:24:52.869Z,1.7
2022-12-27T02:25:44.928Z,1.8
2022-12-27T02:26:53.997Z,1.4
2022-12-27T02:27:53.987Z,1.5
2022-12-27T02:28:51.962Z,1.3
2022-12-27T02:29:45.446Z,1.6
2022-12-27T02:30:34.627Z,1.4
2022-12-27T02:31:39.087Z,1.4
2022-12-27T02:32:38.896Z,1.4
2022-12-27T02:33:36.733Z,1.3
2022-12-27T02:34:52.398Z,1.7
2022-12-27T02:35:44.948Z,1.8
2022-12-27T02:36:36.140Z,1.5
2022-12-27T02:37:36.366Z,2.1
2022-12-27T02:38:39.588Z,1.7
2022-12-27T02:39:35.979Z,1.4
2022-12-27T02:40:34.829Z,1.2
2022-12-27T02:41:34.425Z,1.7
2022-12-27T02:42:33.913Z,1.7
2022-12-27T02:43:34.657Z,2.1
2022-12-27T02:44:35.421Z,1.0
2022-12-27T02:45:37.142Z,1.6
2022-12-27T02:46:34.209Z,1.3
2022-12-27T02:47:34.233Z,1.7
2022-12-27T02:48:34.568Z,1.8
2022-12-27T02:49:36.625Z,1.3
2022-12-27T02:50:39.090Z,1.6
2022-12-27T02:51:41.433Z,1.3
2022-12-27T02:52:54.436Z,1.7
2022-12-27T02:53:39.374Z,1.6
2022-12-27T02:54:39.241Z,1.0
2022-12-27T02:55:56.956Z,1.4
2022-12-27T02:56:38.814Z,1.2
2022-12-27T02:57:42.430Z,1.7
2022-12-27T02:58:44.975Z,1.3
2022-12-27T02:59:54.053Z,1.0
2022-12-27T03:00:38.943Z,1.0
2022-12-27T03:01:39.812Z,1.6
2022-12-27T03:02:39.547Z,1.3
2022-12-27T03:03:47.961Z,1.4
2022-12-27T03:04:41.964Z,1.5
2022-12-27T03:05:51.886Z,1.1
2022-12-27T03:06:48.457Z,1.4
2022-12-27T03:07:41.943Z,1.5
2022-12-27T03:08:39.138Z,1.6
2022-12-27T03:09:41.949Z,1.1
2022-12-27T03:10:41.494Z,1.1
2022-12-27T03:11:39.505Z,1.2
2022-12-27T03:12:44.588Z,1.4
2022-12-27T03:13:41.847Z,1.1
2022-12-27T03:14:39.778Z,1.2
2022-12-27T03:15:52.014Z,1.2
2022-12-27T03:16:39.443Z,1.5
2022-12-27T03:17:39.273Z,1.6
2022-12-27T03:18:47.986Z,1.8
2022-12-27T03:19:44.719Z,1.6
2022-12-27T03:20:35.853Z,1.3
2022-12-27T03:21:44.115Z,1.7
2022-12-27T03:22:35.533Z,1.3
2022-12-27T03:23:35.907Z,1.6
2022-12-27T03:24:36.546Z,1.4
2022-12-27T03:25:35.216Z,1.5
2022-12-27T03:26:36.651Z,1.3
2022-12-27T03:27:35.619Z,1.3
2022-12-27T03:28:34.394Z,1.5
2022-12-27T03:29:34.221Z,2.0
2022-12-27T03:30:36.556Z,1.2
2022-12-27T03:31:37.803Z,1.4
2022-12-27T03:32:35.915Z,1.0
2022-12-27T03:33:34.703Z,1.1
2022-12-27T03:34:37.924Z,1.7
2022-12-27T03:35:37.465Z,1.3
2022-12-27T03:36:34.574Z,1.4
2022-12-27T03:37:38.455Z,1.6
2022-12-27T03:38:36.537Z,1.5
2022-12-27T03:39:35.582Z,1.6
2022-12-27T03:40:45.900Z,1.2
2022-12-27T03:41:39.259Z,1.0
2022-12-27T03:42:40.313Z,0.4
2022-12-27T03:43:35.121Z,1.2
2022-12-27T03:44:34.720Z,1.3
2022-12-27T03:45:39.370Z,1.0
2022-12-27T03:46:34.408Z,1.4
2022-12-27T03:47:37.887Z,1.4
2022-12-27T03:48:38.300Z,1.1
2022-12-27T03:49:37.976Z,1.3
2022-12-27T03:50:38.390Z,0.9
2022-12-27T03:51:51.973Z,1.1
2022-12-27T03:52:38.090Z,0.9
2022-12-27T03:53:37.219Z,1.3
2022-12-27T03:54:38.713Z,1.2
2022-12-27T03:55:34.536Z,1.5
2022-12-27T03:56:34.936Z,1.0
2022-12-27T03:57:34.226Z,1.4
2022-12-27T03:58:39.646Z,1.8
2022-12-27T03:59:34.740Z,1.1
2022-12-27T04:00:34.705Z,1.6
2022-12-27T04:01:34.293Z,1.1
2022-12-27T04:02:34.150Z,1.6
2022-12-27T04:03:34.747Z,1.5
2022-12-27T04:04:34.732Z,0.9
2022-12-27T04:05:34.337Z,0.5
2022-12-27T04:06:34.136Z,0.7
2022-12-27T04:07:33.987Z,1.3
2022-12-27T04:08:34.685Z,0.9
2022-12-27T04:09:34.549Z,1.3
2022-12-27T04:10:34.378Z,1.7
2022-12-27T04:11:34.091Z,1.5
2022-12-27T04:12:33.945Z,0.6
2022-12-27T04:13:34.565Z,1.5
2022-12-27T04:14:34.417Z,0.9
2022-12-27T04:15:34.266Z,1.2
2022-12-27T04:16:34.028Z,1.4
2022-12-27T04:17:33.913Z,1.5
2022-12-27T04:18:34.562Z,0.9
2022-12-27T04:19:34.463Z,1.3
2022-12-27T04:20:34.277Z,1.4
2022-12-27T04:21:34.147Z,1.7
2022-12-27T04:22:34.688Z,1.0
2022-12-27T04:23:34.484Z,1.5
2022-12-27T04:24:34.324Z,1.5
2022-12-27T04:25:34.141Z,1.3
2022-12-27T04:26:34.000Z,1.0
2022-12-27T04:27:34.659Z,1.4
2022-12-27T04:28:34.537Z,0.8
2022-12-27T04:29:34.272Z,0.7
2022-12-27T04:30:34.121Z,1.7
2022-12-27T04:31:34.116Z,1.0
2022-12-27T04:32:34.606Z,1.5
2022-12-27T04:33:34.407Z,1.6
2022-12-27T04:34:34.235Z,1.3
2022-12-27T04:35:34.047Z,1.6
2022-12-27T04:36:33.975Z,1.3
2022-12-27T04:37:34.646Z,1.4
2022-12-27T04:38:34.414Z,1.1
2022-12-27T04:39:34.247Z,1.1
2022-12-27T04:40:34.038Z,0.9
2022-12-27T04:41:34.733Z,1.2
2022-12-27T04:42:34.522Z,1.4
2022-12-27T04:43:34.291Z,1.5
2022-12-27T04:44:34.136Z,1.1
2022-12-27T04:45:33.986Z,1.7
2022-12-27T04:46:34.792Z,1.2
2022-12-27T04:47:34.662Z,1.5
2022-12-27T04:48:34.347Z,0.8
2022-12-27T04:49:34.297Z,1.4
2022-12-27T04:50:33.964Z,1.2
2022-12-27T04:51:34.599Z,0.7
2022-12-27T04:52:34.485Z,1.4
2022-12-27T04:53:34.225Z,1.4
2022-12-27T04:54:34.021Z,1.4
2022-12-27T04:55:33.940Z,1.7
2022-12-27T04:56:34.564Z,1.2
2022-12-27T04:57:34.439Z,2.0
2022-12-27T04:58:34.247Z,0.9
2022-12-27T04:59:34.044Z,1.0
2022-12-27T05:00:34.754Z,1.2
2022-12-27T05:01:34.843Z,1.2
2022-12-27T05:02:34.950Z,1.3
2022-12-27T05:03:34.598Z,0.8
2022-12-27T05:04:35.575Z,1.4
2022-12-27T05:05:35.265Z,1.2
2022-12-27T05:06:34.539Z,2.1
2022-12-27T05:07:35.552Z,0.8
2022-12-27T05:08:34.221Z,1.2
2022-12-27T05:09:33.996Z,1.6
2022-12-27T05:10:34.772Z,0.9
2022-12-27T05:11:34.462Z,1.2
2022-12-27T05:12:34.255Z,1.2
2022-12-27T05:13:34.169Z,1.7
2022-12-27T05:14:33.939Z,1.2
2022-12-27T05:15:34.627Z,1.1
2022-12-27T05:16:38.172Z,1.4
2022-12-27T05:17:34.242Z,1.5
2022-12-27T05:18:34.042Z,1.2
2022-12-27T05:19:33.917Z,1.1
2022-12-27T05:20:34.503Z,1.6
2022-12-27T05:21:37.697Z,1.4
2022-12-27T05:22:34.182Z,0.9
2022-12-27T05:23:34.501Z,1.1
2022-12-27T05:24:34.707Z,0.7
2022-12-27T05:25:38.948Z,1.1
2022-12-27T05:26:34.631Z,1.0
2022-12-27T05:27:34.152Z,0.8
2022-12-27T05:28:34.009Z,1.2
2022-12-27T05:29:34.662Z,0.8
2022-12-27T05:30:38.303Z,1.1
2022-12-27T05:31:34.384Z,1.3
2022-12-27T05:32:34.090Z,1.7
2022-12-27T05:33:33.883Z,0.9
2022-12-27T05:34:34.643Z,1.0
2022-12-27T05:35:34.499Z,1.0
2022-12-27T05:36:34.306Z,1.4
2022-12-27T05:37:34.181Z,0.9
2022-12-27T05:38:33.946Z,1.3
2022-12-27T05:39:34.615Z,0.7
2022-12-27T05:40:34.591Z,1.0
2022-12-27T05:41:34.249Z,0.6
2022-12-27T05:42:34.008Z,1.2
2022-12-27T05:43:35.088Z,1.2
2022-12-27T05:44:34.539Z,1.3
2022-12-27T05:45:34.443Z,0.7
2022-12-27T05:46:34.288Z,1.0
2022-12-27T05:47:33.995Z,1.4
2022-12-27T05:48:34.894Z,1.4
2022-12-27T05:49:34.473Z,0.9
2022-12-27T05:50:34.393Z,0.6
2022-12-27T05:51:34.133Z,0.9
2022-12-27T05:52:39.139Z,1.0
2022-12-27T05:53:35.052Z,1.0
2022-12-27T05:54:34.512Z,1.0
2022-12-27T05:55:34.353Z,1.3
2022-12-27T05:56:34.109Z,1.7
2022-12-27T05:57:33.893Z,1.0
2022-12-27T05:58:34.595Z,0.8
2022-12-27T05:59:34.469Z,1.5
2022-12-27T06:00:34.308Z,1.3
2022-12-27T06:01:34.253Z,1.0
2022-12-27T06:02:34.042Z,1.1
2022-12-27T06:03:35.032Z,0.8
2022-12-27T06:04:34.579Z,1.2
2022-12-27T06:05:34.253Z,1.5
2022-12-27T06:06:34.112Z,1.0
2022-12-27T06:07:35.676Z,1.2
2022-12-27T06:08:34.891Z,1.7
2022-12-27T06:09:34.367Z,1.1
2022-12-27T06:10:34.225Z,1.5
2022-12-27T06:11:34.038Z,1.1
2022-12-27T06:12:34.934Z,1.0
2022-12-27T06:13:34.994Z,1.1
2022-12-27T06:14:34.383Z,1.4
2022-12-27T06:15:34.171Z,1.1
2022-12-27T06:16:34.127Z,1.1
2022-12-27T06:17:34.681Z,0.8
2022-12-27T06:18:35.265Z,0.5
2022-12-27T06:19:34.308Z,0.6
2022-12-27T06:20:34.116Z,0.6
2022-12-27T06:21:33.925Z,1.2
2022-12-27T06:22:34.685Z,1.1
2022-12-27T06:23:35.237Z,1.5
2022-12-27T06:24:34.285Z,1.5
2022-12-27T06:25:36.341Z,1.0
2022-12-27T06:26:33.911Z,1.3
2022-12-27T06:27:34.626Z,1.5
2022-12-27T06:28:34.508Z,1.4
2022-12-27T06:29:34.169Z,0.9
2022-12-27T06:30:36.238Z,1.1
2022-12-27T06:31:34.745Z,1.2
2022-12-27T06:32:34.665Z,1.5
2022-12-27T06:33:34.343Z,0.9
2022-12-27T06:34:34.179Z,1.2
2022-12-27T06:35:34.027Z,0.9
2022-12-27T06:36:34.716Z,1.1
2022-12-27T06:37:34.581Z,1.8
2022-12-27T06:38:34.432Z,1.3
2022-12-27T06:39:34.108Z,0.8
2022-12-27T06:40:33.920Z,1.1
2022-12-27T06:41:34.680Z,1.0
2022-12-27T06:42:34.519Z,0.6
2022-12-27T06:43:34.314Z,0.9
2022-12-27T06:44:34.081Z,0.6
2022-12-27T06:45:33.980Z,0.8
2022-12-27T06:46:34.548Z,1.1
2022-12-27T06:47:34.409Z,0.8
2022-12-27T06:48:34.652Z,1.2
2022-12-27T06:49:34.005Z,1.2
2022-12-27T06:50:35.696Z,1.4
2022-12-27T06:51:34.598Z,0.9
2022-12-27T06:52:34.400Z,0.7
2022-12-27T06:53:34.655Z,1.4
2022-12-27T06:54:33.978Z,1.2
2022-12-27T06:55:34.654Z,0.7
2022-12-27T06:56:34.457Z,1.0
2022-12-27T06:57:34.297Z,1.1
2022-12-27T06:58:34.189Z,1.4
2022-12-27T06:59:33.913Z,1.0
2022-12-27T07:00:34.842Z,0.9
2022-12-27T07:01:34.645Z,1.9
2022-12-27T07:02:34.432Z,1.1
2022-12-27T07:03:34.242Z,1.2
2022-12-27T07:04:33.969Z,0.9
2022-12-27T07:05:34.782Z,1.6
2022-12-27T07:06:35.254Z,0.8
2022-12-27T07:07:34.294Z,0.9
2022-12-27T07:08:35.036Z,0.8
2022-12-27T07:09:34.785Z,1.6
2022-12-27T07:10:35.048Z,1.0
2022-12-27T07:11:35.043Z,0.8
2022-12-27T07:12:36.837Z,1.0
2022-12-27T07:13:38.482Z,1.6
2022-12-27T07:14:34.826Z,1.0
2022-12-27T07:15:34.540Z,1.1
2022-12-27T07:16:34.386Z,1.2
2022-12-27T07:17:34.503Z,1.0
2022-12-27T07:18:33.996Z,0.9
2022-12-27T07:19:34.745Z,0.7
2022-12-27T07:20:34.764Z,0.9
2022-12-27T07:21:35.567Z,0.8
2022-12-27T07:22:34.120Z,0.9
2022-12-27T07:23:34.347Z,1.0
2022-12-27T07:24:34.672Z,0.8
2022-12-27T07:25:34.586Z,1.5
2022-12-27T07:26:34.228Z,1.0
2022-12-27T07:27:34.784Z,0.9
2022-12-27T07:28:35.146Z,1.3
2022-12-27T07:29:34.595Z,1.0
2022-12-27T07:30:34.380Z,0.7
2022-12-27T07:31:34.297Z,0.9
2022-12-27T07:32:34.013Z,0.7
2022-12-27T07:33:34.993Z,0.5
2022-12-27T07:34:34.495Z,0.7
2022-12-27T07:35:34.256Z,0.9
2022-12-27T07:36:35.587Z,0.9
2022-12-27T07:37:33.903Z,1.1
2022-12-27T07:38:34.629Z,1.7
2022-12-27T07:39:34.556Z,1.3
2022-12-27T07:40:35.645Z,0.7
2022-12-27T07:41:34.616Z,1.3
2022-12-27T07:42:33.860Z,0.9
2022-12-27T07:43:34.934Z,0.6
2022-12-27T07:44:34.386Z,0.4
2022-12-27T07:45:34.173Z,0.9
2022-12-27T07:46:33.948Z,1.2
2022-12-27T07:47:34.673Z,1.4
2022-12-27T07:48:34.968Z,1.1
2022-12-27T07:49:34.346Z,1.2
2022-12-27T07:50:34.151Z,1.7
2022-12-27T07:51:33.936Z,0.9
2022-12-27T07:52:34.622Z,0.7
2022-12-27T07:53:34.724Z,0.3
2022-12-27T07:54:34.244Z,0.8
2022-12-27T07:55:34.007Z,1.0
2022-12-27T07:56:34.716Z,0.6
2022-12-27T07:57:34.548Z,0.7
2022-12-27T07:58:35.063Z,1.1
2022-12-27T07:59:34.133Z,0.6
2022-12-27T08:00:34.024Z,0.4
2022-12-27T08:01:34.937Z,0.7
2022-12-27T08:02:34.462Z,0.8
2022-12-27T08:03:34.332Z,1.3
2022-12-27T08:04:35.270Z,1.4
2022-12-27T08:05:34.802Z,0.9
2022-12-27T08:06:39.440Z,0.7
2022-12-27T08:07:34.753Z,0.8
2022-12-27T08:08:41.977Z,0.6
2022-12-27T08:09:35.511Z,1.3
2022-12-27T08:10:34.620Z,0.8
2022-12-27T08:11:34.430Z,0.9
2022-12-27T08:12:34.270Z,0.9
2022-12-27T08:13:34.325Z,0.6
2022-12-27T08:14:33.897Z,1.1
2022-12-27T08:15:35.378Z,1.0
2022-12-27T08:16:34.464Z,0.6
2022-12-27T08:17:34.520Z,1.3
2022-12-27T08:18:34.072Z,4.7
2022-12-27T08:19:33.880Z,6.6
2022-12-27T08:20:34.747Z,4.3
2022-12-27T08:21:34.390Z,3.0
2022-12-27T08:22:34.231Z,2.9
2022-12-27T08:23:34.016Z,3.2
2022-12-27T08:24:34.752Z,3.7
2022-12-27T08:25:34.566Z,3.0
2022-12-27T08:26:34.407Z,4.3
2022-12-27T08:27:34.478Z,3.8
2022-12-27T08:28:34.532Z,4.1
2022-12-27T08:29:34.671Z,3.7
2022-12-27T08:30:34.533Z,3.7
2022-12-27T08:31:34.307Z,3.6
2022-12-27T08:32:34.138Z,4.4
2022-12-27T08:33:34.462Z,4.0
2022-12-27T08:34:34.719Z,3.2
2022-12-27T08:35:52.344Z,3.7
2022-12-27T08:36:54.730Z,3.4
2022-12-27T08:37:34.283Z,2.8
2022-12-27T08:38:33.996Z,3.9
2022-12-27T08:39:34.628Z,3.1
2022-12-27T08:40:38.303Z,2.8
2022-12-27T08:41:34.340Z,3.4
2022-12-27T08:42:34.139Z,2.8
2022-12-27T08:43:34.344Z,3.6
2022-12-27T08:44:34.620Z,2.9
2022-12-27T08:45:34.883Z,2.6
2022-12-27T08:46:34.367Z,2.6
2022-12-27T08:47:34.202Z,3.0
2022-12-27T08:48:33.952Z,2.7
2022-12-27T08:49:34.630Z,2.9
2022-12-27T08:50:34.634Z,1.9
2022-12-27T08:51:40.693Z,2.4
2022-12-27T08:52:34.079Z,2.2
2022-12-27T08:53:33.869Z,2.1
2022-12-27T08:54:34.612Z,2.4
2022-12-27T08:55:34.452Z,2.9
2022-12-27T08:56:34.252Z,2.6
2022-12-27T08:57:34.165Z,2.4
2022-12-27T08:58:33.976Z,1.9
2022-12-27T08:59:34.540Z,3.0
2022-12-27T09:00:34.406Z,2.6
2022-12-27T09:01:34.302Z,2.7
2022-12-27T09:02:34.218Z,2.1
2022-12-27T09:03:34.920Z,2.3
2022-12-27T09:04:34.547Z,2.6
2022-12-27T09:05:41.211Z,2.3
2022-12-27T09:06:34.155Z,2.6
2022-12-27T09:07:33.969Z,1.9
2022-12-27T09:08:34.684Z,2.1
2022-12-27T09:09:34.484Z,2.7
2022-12-27T09:10:34.266Z,2.1
2022-12-27T09:11:34.113Z,1.5
2022-12-27T09:12:33.954Z,2.1
2022-12-27T09:13:34.712Z,2.7
2022-12-27T09:14:34.542Z,2.0
2022-12-27T09:15:34.435Z,2.4
2022-12-27T09:16:34.346Z,1.7
2022-12-27T09:17:33.912Z,1.9
2022-12-27T09:18:34.734Z,2.2
2022-12-27T09:19:34.591Z,2.2
2022-12-27T09:20:34.181Z,2.6
2022-12-27T09:21:34.158Z,2.4
2022-12-27T09:22:34.037Z,1.5
2022-12-27T09:23:34.916Z,2.7
2022-12-27T09:24:34.578Z,2.6
2022-12-27T09:25:34.386Z,2.3
2022-12-27T09:26:34.076Z,2.2
2022-12-27T09:27:35.042Z,2.5
2022-12-27T09:28:34.885Z,2.8
2022-12-27T09:29:34.455Z,2.9
2022-12-27T09:30:34.733Z,12.3
2022-12-27T09:31:34.218Z,12.8
2022-12-27T09:32:34.798Z,9.2
2022-12-27T09:33:34.894Z,8.2
2022-12-27T09:34:34.380Z,8.3
2022-12-27T09:35:38.462Z,8.0
2022-12-27T09:36:36.794Z,8.4
2022-12-27T09:37:34.301Z,9.9
2022-12-27T09:38:35.375Z,11.1
2022-12-27T09:39:33.997Z,11.6
2022-12-27T09:40:34.685Z,10.1
2022-12-27T09:43:02.029Z,9.5
2022-12-27T09:43:42.116Z,9.5
2022-12-27T09:44:49.822Z,9.4
2022-12-27T09:45:40.713Z,8.6
2022-12-27T09:46:40.099Z,9.4
2022-12-27T09:47:45.508Z,9.7
2022-12-27T09:48:38.741Z,8.3
2022-12-27T09:49:41.506Z,8.3
2022-12-27T09:50:40.855Z,9.2
2022-12-27T09:51:38.889Z,7.5
2022-12-27T09:52:45.485Z,7.1
2022-12-27T09:53:41.974Z,8.1
2022-12-27T09:54:42.182Z,6.8
2022-12-27T09:55:42.029Z,6.9
2022-12-27T09:56:54.570Z,6.8
2022-12-27T09:57:39.356Z,6.7
2022-12-27T09:58:38.883Z,6.4
2022-12-27T09:59:39.663Z,6.7
2022-12-27T10:00:36.541Z,6.9
2022-12-27T10:01:35.296Z,5.8
2022-12-27T10:02:34.331Z,7.2
2022-12-27T10:03:33.931Z,7.0
2022-12-27T10:05:09.993Z,6.0
2022-12-27T10:05:35.619Z,6.3
2022-12-27T10:06:39.213Z,6.2
2022-12-27T10:07:52.421Z,6.0
2022-12-27T10:08:41.463Z,5.5
2022-12-27T10:09:42.489Z,6.3
2022-12-27T10:10:39.315Z,7.0
2022-12-27T10:11:51.021Z,6.2
2022-12-27T10:12:38.976Z,5.8
2022-12-27T10:13:48.637Z,5.8
2022-12-27T10:14:45.613Z,5.8
2022-12-27T10:15:42.058Z,5.8
2022-12-27T10:16:39.195Z,5.5
2022-12-27T10:17:41.478Z,5.4
2022-12-27T10:18:43.729Z,6.3
2022-12-27T10:19:53.971Z,5.3
2022-12-27T10:20:39.267Z,5.0
2022-12-27T10:21:36.500Z,5.2
2022-12-27T10:22:39.028Z,5.3
2022-12-27T10:23:35.595Z,5.7
2022-12-27T10:24:42.023Z,5.7
2022-12-27T10:25:34.709Z,4.9
2022-12-27T10:26:36.060Z,5.4
2022-12-27T10:27:34.597Z,5.8
2022-12-27T10:28:42.698Z,5.2
2022-12-27T10:29:34.657Z,5.8
2022-12-27T10:30:34.380Z,4.9
2022-12-27T10:31:36.664Z,5.4
2022-12-27T10:32:34.046Z,5.8
2022-12-27T10:33:34.739Z,5.5
2022-12-27T10:34:34.113Z,4.4
2022-12-27T10:35:33.939Z,5.2
2022-12-27T10:36:34.815Z,6.0
2022-12-27T10:37:34.430Z,4.7
2022-12-27T10:38:34.268Z,4.3
2022-12-27T10:39:35.099Z,5.6
2022-12-27T10:40:38.826Z,5.1
2022-12-27T10:41:54.037Z,4.6
2022-12-27T10:42:39.729Z,5.2
2022-12-27T10:43:37.555Z,5.0
2022-12-27T10:44:34.541Z,5.6
2022-12-27T10:45:35.597Z,5.4
2022-12-27T10:46:34.664Z,5.8
2022-12-27T10:47:34.363Z,5.1
2022-12-27T10:49:10.877Z,4.5
2022-12-27T10:49:34.548Z,5.5
2022-12-27T10:50:35.148Z,4.6
2022-12-27T10:51:36.174Z,4.1
2022-12-27T10:52:34.503Z,5.1
2022-12-27T10:53:38.458Z,5.2
2022-12-27T10:54:34.603Z,5.0
2022-12-27T10:55:38.280Z,4.9
2022-12-27T10:56:36.159Z,5.5
2022-12-27T10:57:34.349Z,5.0
2022-12-27T10:58:39.129Z,4.8
2022-12-27T10:59:33.973Z,4.4
2022-12-27T11:00:36.445Z,5.3
2022-12-27T11:01:34.574Z,4.5
2022-12-27T11:02:34.537Z,5.0
2022-12-27T11:03:34.440Z,4.6
2022-12-27T11:04:34.057Z,5.4
2022-12-27T11:05:34.751Z,5.4
2022-12-27T11:06:34.626Z,4.5
2022-12-27T11:07:34.736Z,4.2
2022-12-27T11:08:34.574Z,4.9
2022-12-27T11:09:35.707Z,4.5
2022-12-27T11:10:34.619Z,5.1
2022-12-27T11:11:34.415Z,5.8
2022-12-27T11:12:34.290Z,5.3
2022-12-27T11:13:34.162Z,5.2
2022-12-27T11:14:34.456Z,5.2
2022-12-27T11:15:35.548Z,4.6
2022-12-27T11:16:35.052Z,4.7
2022-12-27T11:17:44.696Z,4.1
2022-12-27T11:18:35.416Z,4.7
2022-12-27T11:19:36.466Z,4.8
2022-12-27T11:20:51.926Z,4.8
2022-12-27T11:21:37.120Z,6.0
2022-12-27T11:22:39.498Z,5.8
2022-12-27T11:23:35.115Z,6.1
2022-12-27T11:24:34.807Z,5.2
2022-12-27T11:25:35.805Z,5.4
2022-12-27T11:26:50.234Z,4.3
2022-12-27T11:27:34.203Z,5.0
2022-12-27T11:28:41.604Z,4.3
2022-12-27T11:29:34.770Z,5.0
2022-12-27T11:30:36.802Z,4.3
2022-12-27T11:31:38.944Z,4.8
2022-12-27T11:32:34.151Z,5.0
2022-12-27T11:33:36.564Z,5.0
2022-12-27T11:34:36.529Z,4.7
2022-12-27T11:35:38.961Z,4.9
2022-12-27T11:36:39.464Z,4.6
2022-12-27T11:37:38.649Z,5.1
2022-12-27T11:38:35.665Z,4.2
2022-12-27T11:39:41.708Z,4.8
2022-12-27T11:40:34.293Z,4.9
2022-12-27T11:41:49.575Z,4.6
2022-12-27T11:42:36.276Z,4.7
2022-12-27T11:43:51.529Z,4.1
2022-12-27T11:44:36.808Z,4.5
2022-12-27T11:45:39.498Z,5.3
2022-12-27T11:46:42.614Z,5.0
2022-12-27T11:47:41.389Z,5.6
2022-12-27T11:48:41.096Z,6.2
2022-12-27T11:49:39.779Z,8.3
2022-12-27T11:50:41.998Z,6.8
2022-12-27T11:51:51.529Z,6.4
2022-12-27T11:52:54.030Z,6.1
2022-12-27T11:53:56.155Z,6.3
2022-12-27T11:54:39.421Z,7.6
2022-12-27T11:55:48.517Z,8.4
2022-12-27T11:56:37.186Z,8.7
2022-12-27T11:57:39.305Z,8.9
2022-12-27T11:58:57.523Z,8.7
2022-12-27T11:59:41.523Z,8.9
2022-12-27T12:00:45.009Z,8.3
2022-12-27T12:01:41.683Z,8.4
2022-12-27T12:02:45.601Z,7.2
2022-12-27T12:03:52.424Z,8.4
2022-12-27T12:04:42.025Z,7.4
2022-12-27T12:05:50.998Z,7.3
2022-12-27T12:06:47.562Z,7.2
2022-12-27T12:07:52.933Z,7.3
2022-12-27T12:08:41.988Z,7.2
2022-12-27T12:09:52.461Z,6.6
2022-12-27T12:10:39.116Z,7.2
2022-12-27T12:11:38.923Z,6.7
2022-12-27T12:12:39.672Z,6.4
2022-12-27T12:13:48.025Z,5.8
2022-12-27T12:14:51.031Z,6.1
2022-12-27T12:15:52.439Z,5.8
2022-12-27T12:16:39.004Z,6.9
2022-12-27T12:17:51.487Z,6.5
2022-12-27T12:18:47.995Z,6.1
2022-12-27T12:19:39.245Z,6.6
2022-12-27T12:20:53.986Z,6.7
2022-12-27T12:21:44.493Z,6.0
2022-12-27T12:22:53.006Z,6.1
2022-12-27T12:23:48.036Z,5.9
2022-12-27T12:24:54.045Z,6.1
2022-12-27T12:25:51.992Z,5.3
2022-12-27T12:26:55.874Z,6.0
2022-12-27T12:27:51.573Z,6.1
2022-12-27T12:28:59.141Z,5.0
2022-12-27T12:29:52.478Z,4.9
2022-12-27T12:30:52.433Z,5.1
2022-12-27T12:31:38.901Z,6.4
2022-12-27T12:32:38.079Z,6.2
2022-12-27T12:33:41.524Z,5.5
2022-12-27T12:34:39.543Z,5.7
2022-12-27T12:35:39.389Z,6.2
2022-12-27T12:36:39.186Z,5.3
2022-12-27T12:37:57.041Z,5.8
2022-12-27T12:38:41.580Z,6.0
2022-12-27T12:39:51.047Z,5.4
2022-12-27T12:40:52.488Z,5.5
2022-12-27T12:41:39.193Z,5.7
2022-12-27T12:42:41.560Z,5.5
2022-12-27T12:43:54.527Z,5.8
2022-12-27T12:44:54.009Z,5.2
2022-12-27T12:45:39.375Z,7.4
2022-12-27T12:46:37.348Z,7.8
2022-12-27T12:47:45.014Z,7.2
2022-12-27T12:48:39.249Z,8.1
2022-12-27T12:49:51.009Z,6.9
2022-12-27T12:50:45.537Z,7.1
2022-12-27T12:51:45.092Z,7.0
2022-12-27T12:52:39.363Z,7.2
2022-12-27T12:53:52.533Z,6.7
2022-12-27T12:54:47.529Z,6.6
2022-12-27T12:55:39.691Z,7.9
2022-12-27T12:56:53.557Z,7.8
2022-12-27T12:57:44.545Z,7.7
2022-12-27T12:58:39.584Z,7.8
2022-12-27T12:59:53.522Z,7.2
2022-12-27T13:00:52.040Z,7.2
2022-12-27T13:01:39.121Z,7.2
2022-12-27T13:02:39.018Z,6.4
2022-12-27T13:03:45.526Z,6.6
2022-12-27T13:04:45.026Z,7.0
2022-12-27T13:05:49.126Z,6.7
2022-12-27T13:06:41.559Z,6.2
2022-12-27T13:07:39.775Z,6.3
2022-12-27T13:08:48.013Z,6.5
2022-12-27T13:09:42.067Z,5.5
2022-12-27T13:10:48.069Z,6.1
2022-12-27T13:11:50.563Z,7.0
2022-12-27T13:12:39.234Z,6.4
2022-12-27T13:13:52.501Z,5.9
2022-12-27T13:14:41.641Z,6.7
2022-12-27T13:15:42.062Z,6.8
2022-12-27T13:16:52.554Z,5.7
2022-12-27T13:17:42.050Z,6.5
2022-12-27T13:18:47.550Z,5.8
2022-12-27T13:19:39.668Z,6.3
2022-12-27T13:20:42.016Z,5.6
2022-12-27T13:21:48.038Z,6.8
2022-12-27T13:22:52.473Z,6.9
2022-12-27T13:23:39.260Z,6.4
2022-12-27T13:24:39.206Z,7.1
2022-12-27T13:25:44.606Z,6.7
2022-12-27T13:26:39.244Z,6.1
2022-12-27T13:27:52.509Z,6.2
2022-12-27T13:28:46.852Z,6.4
2022-12-27T13:29:44.561Z,6.4
2022-12-27T13:30:40.889Z,6.1
2022-12-27T13:31:41.604Z,7.0
2022-12-27T13:32:39.425Z,5.9
2022-12-27T13:33:39.325Z,5.8
2022-12-27T13:34:42.044Z,6.3
2022-12-27T13:35:42.037Z,6.7
2022-12-27T13:36:39.208Z,6.4
2022-12-27T13:37:41.549Z,6.1
2022-12-27T13:38:39.218Z,5.4
2022-12-27T13:39:50.567Z,6.4
2022-12-27T13:40:38.869Z,6.0
2022-12-27T13:41:48.585Z,6.0
2022-12-27T13:42:52.515Z,6.3
2022-12-27T13:43:45.103Z,5.5
2022-12-27T13:44:53.581Z,5.8
2022-12-27T13:45:52.114Z,6.2
2022-12-27T13:46:53.034Z,5.2